createdAt,value
2022-12-09T00:01:42.174Z,99364.16
2022-12-09T00:04:09.922Z,99369.22
2022-12-09T00:06:37.840Z,99358.88
2022-12-09T00:09:05.710Z,99345.94
2022-12-09T00:11:33.407Z,99349.34
2022-12-09T00:14:00.983Z,99348.47
2022-12-09T00:16:28.513Z,99355.38
2022-12-09T00:18:57.712Z,99358.84
2022-12-09T00:21:27.643Z,99374.44
2022-12-09T00:23:57.076Z,99375.28
2022-12-09T00:26:25.547Z,99383.84
2022-12-09T00:28:53.792Z,99387.25
2022-12-09T00:31:29.607Z,99383.78
2022-12-09T00:33:59.341Z,99386.38
2022-12-09T00:36:27.717Z,99382.06
2022-12-09T00:38:57.387Z,99386.34
2022-12-09T00:41:25.727Z,99376.06
2022-12-09T00:43:53.384Z,99373.47
2022-12-09T00:46:20.818Z,99370.03
2022-12-09T00:48:48.630Z,99362.25
2022-12-09T00:51:19.178Z,99363.13
2022-12-09T00:53:47.571Z,99365.78
2022-12-09T00:56:15.895Z,99370.84
2022-12-09T00:58:43.284Z,99373.41
2022-12-09T01:01:10.688Z,99385.53
2022-12-09T01:03:38.773Z,99388.12
2022-12-09T01:06:12.165Z,99387.34
2022-12-09T01:08:40.274Z,99397.72
2022-12-09T01:11:09.754Z,99396.75
2022-12-09T01:13:37.366Z,99386.34
2022-12-09T01:16:05.586Z,99383.84
2022-12-09T01:18:33.337Z,99370.06
2022-12-09T01:21:01.058Z,99367.50
2022-12-09T01:23:28.672Z,99375.19
2022-12-09T01:25:56.517Z,99376.16
2022-12-09T01:28:24.120Z,99379.50
2022-12-09T01:30:51.802Z,99382.06
2022-12-09T01:33:19.223Z,99375.19
2022-12-09T01:35:46.771Z,99373.47
2022-12-09T01:38:14.782Z,99357.97
2022-12-09T01:40:46.489Z,99357.91
2022-12-09T01:43:21.469Z,99357.97
2022-12-09T01:45:49.236Z,99346.78
2022-12-09T01:48:19.382Z,99358.81
2022-12-09T01:50:51.048Z,99365.72
2022-12-09T01:53:20.409Z,99370.00
2022-12-09T01:55:48.821Z,99369.22
2022-12-09T01:58:17.808Z,99365.75
2022-12-09T02:00:46.411Z,99366.59
2022-12-09T02:03:14.860Z,99359.69
2022-12-09T02:05:43.278Z,99364.91
2022-12-09T02:08:17.242Z,99363.25
2022-12-09T02:10:55.217Z,99361.50
2022-12-09T02:13:39.752Z,99351.13
2022-12-09T02:16:10.498Z,99343.34
2022-12-09T02:18:43.060Z,99349.34
2022-12-09T02:21:38.182Z,99342.41
2022-12-09T02:24:10.768Z,99337.22
2022-12-09T02:26:44.623Z,99341.50
2022-12-09T02:29:32.993Z,99342.38
2022-12-09T02:32:36.607Z,99337.25
2022-12-09T02:35:32.286Z,99337.22
2022-12-09T02:38:16.858Z,99338.09
2022-12-09T02:40:54.320Z,99334.66
2022-12-09T02:43:25.496Z,99331.22
2022-12-09T02:45:55.480Z,99326.91
2022-12-09T02:48:25.791Z,99334.69
2022-12-09T02:50:53.885Z,99336.47
2022-12-09T02:53:23.108Z,99330.37
2022-12-09T02:55:52.719Z,99326.91
2022-12-09T02:58:20.782Z,99326.06
2022-12-09T03:00:48.570Z,99326.91
2022-12-09T03:03:17.184Z,99333.81
2022-12-09T03:06:17.875Z,99326.88
2022-12-09T03:09:06.389Z,99312.22
2022-12-09T03:11:34.383Z,99322.56
2022-12-09T03:14:09.937Z,99323.44
2022-12-09T03:16:54.565Z,99326.00
2022-12-09T03:19:35.632Z,99350.16
2022-12-09T03:22:08.227Z,99342.41
2022-12-09T03:24:44.333Z,99345.94
2022-12-09T03:27:17.079Z,99340.75
2022-12-09T03:29:44.557Z,99340.66
2022-12-09T03:32:12.707Z,99329.47
2022-12-09T03:34:42.591Z,99343.28
2022-12-09T03:37:10.856Z,99331.25
2022-12-09T03:39:40.100Z,99329.56
2022-12-09T03:42:16.531Z,99326.97
2022-12-09T03:44:52.371Z,99318.25
2022-12-09T03:47:19.863Z,99322.59
2022-12-09T03:49:47.794Z,99335.53
2022-12-09T03:52:27.090Z,99334.69
2022-12-09T03:55:00.999Z,99326.91
2022-12-09T03:57:29.313Z,99331.19
2022-12-09T03:59:59.991Z,99317.47
2022-12-09T04:02:28.363Z,99322.53
2022-12-09T04:04:56.223Z,99317.38
2022-12-09T04:07:23.666Z,99315.66
2022-12-09T04:09:51.272Z,99319.84
2022-12-09T04:12:19.100Z,99322.50
2022-12-09T04:14:46.535Z,99322.44
2022-12-09T04:17:14.141Z,99309.53
2022-12-09T04:19:42.560Z,99308.72
2022-12-09T04:22:10.006Z,99302.72
2022-12-09T04:24:37.688Z,99305.28
2022-12-09T04:27:05.716Z,99302.72
2022-12-09T04:29:33.234Z,99308.75
2022-12-09T04:32:00.724Z,99308.78
2022-12-09T04:34:28.433Z,99312.25
2022-12-09T04:36:55.751Z,99312.25
2022-12-09T04:39:23.415Z,99301.84
2022-12-09T04:41:51.024Z,99300.16
2022-12-09T04:44:18.310Z,99297.59
2022-12-09T04:46:45.761Z,99294.94
2022-12-09T04:49:13.462Z,99296.69
2022-12-09T04:51:41.100Z,99297.53
2022-12-09T04:54:12.592Z,99307.91
2022-12-09T04:59:08.594Z,99304.50
2022-12-09T05:01:36.398Z,99304.53
2022-12-09T05:04:04.529Z,99298.50
2022-12-09T05:06:32.239Z,99291.56
2022-12-09T05:09:00.342Z,99295.06
2022-12-09T05:11:28.283Z,99301.91
2022-12-09T05:13:56.029Z,99304.47
2022-12-09T05:16:24.088Z,99300.16
2022-12-09T05:18:52.446Z,99298.44
2022-12-09T05:21:20.950Z,99294.13
2022-12-09T05:23:49.539Z,99286.34
2022-12-09T05:26:19.931Z,99283.81
2022-12-09T05:28:47.654Z,99288.12
2022-12-09T05:31:19.836Z,99290.72
2022-12-09T05:33:48.749Z,99292.44
2022-12-09T05:36:19.655Z,99289.81
2022-12-09T05:38:48.953Z,99295.81
2022-12-09T05:41:17.927Z,99293.25
2022-12-09T05:43:45.824Z,99284.66
2022-12-09T05:46:14.782Z,99281.22
2022-12-09T05:48:42.979Z,99287.19
2022-12-09T05:51:15.450Z,99274.28
2022-12-09T05:53:43.330Z,99277.75
2022-12-09T05:56:14.608Z,99271.69
2022-12-09T05:58:42.151Z,99269.13
2022-12-09T06:01:10.766Z,99264.78
2022-12-09T06:03:38.764Z,99272.53
2022-12-09T06:06:09.487Z,99269.13
2022-12-09T06:08:37.941Z,99277.72
2022-12-09T06:11:11.876Z,99268.28
2022-12-09T06:13:39.438Z,99276.00
2022-12-09T06:16:08.489Z,99262.19
2022-12-09T06:18:36.936Z,99260.47
2022-12-09T06:21:10.160Z,99268.28
2022-12-09T06:23:41.375Z,99258.78
2022-12-09T06:26:16.013Z,99259.66
2022-12-09T06:28:44.024Z,99270.00
2022-12-09T06:31:11.726Z,99271.72
2022-12-09T06:33:57.097Z,99259.66
2022-12-09T06:36:27.104Z,99269.13
2022-12-09T06:38:55.450Z,99270.88
2022-12-09T06:41:23.242Z,99268.31
2022-12-09T06:43:51.429Z,99262.25
2022-12-09T06:46:23.346Z,99266.59
2022-12-09T06:48:51.896Z,99264.84
2022-12-09T06:51:20.359Z,99267.44
2022-12-09T06:53:48.215Z,99261.41
2022-12-09T06:56:16.930Z,99257.94
2022-12-09T06:58:45.289Z,99262.31
2022-12-09T07:01:15.616Z,99254.50
2022-12-09T07:03:50.361Z,99259.72
2022-12-09T07:06:26.719Z,99252.81
2022-12-09T07:08:55.694Z,99251.94
2022-12-09T07:11:23.662Z,99251.97
2022-12-09T07:13:51.681Z,99257.97
2022-12-09T07:16:19.525Z,99249.34
2022-12-09T07:18:47.691Z,99251.06
2022-12-09T07:21:18.098Z,99252.78
2022-12-09T07:23:46.623Z,99251.06
2022-12-09T07:26:14.386Z,99251.09
2022-12-09T07:28:44.209Z,99253.66
2022-12-09T07:31:26.585Z,99257.13
2022-12-09T07:33:56.392Z,99258.84
2022-12-09T07:36:26.515Z,99256.25
2022-12-09T07:38:58.072Z,99254.53
2022-12-09T07:41:25.977Z,99245.91
2022-12-09T07:43:53.715Z,99247.63
2022-12-09T07:46:22.626Z,99245.03
2022-12-09T07:48:50.502Z,99244.19
2022-12-09T07:51:18.620Z,99244.19
2022-12-09T07:53:46.940Z,99240.78
2022-12-09T07:56:15.831Z,99239.87
2022-12-09T07:58:46.994Z,99236.41
2022-12-09T08:01:19.761Z,99245.09
2022-12-09T08:03:48.779Z,99236.44
2022-12-09T08:06:22.549Z,99237.31
2022-12-09T08:08:51.193Z,99234.75
2022-12-09T08:11:24.193Z,99233.84
2022-12-09T08:13:52.614Z,99232.13
2022-12-09T08:16:22.076Z,99225.22
2022-12-09T08:18:51.002Z,99226.06
2022-12-09T08:21:22.821Z,99216.53
2022-12-09T08:23:50.934Z,99216.56
2022-12-09T08:26:21.469Z,99220.88
2022-12-09T08:28:49.548Z,99218.31
2022-12-09T08:31:19.771Z,99207.09
2022-12-09T08:33:48.123Z,99207.94
2022-12-09T08:36:21.715Z,99206.19
2022-12-09T08:38:50.164Z,99206.22
2022-12-09T08:41:20.802Z,99205.34
2022-12-09T08:43:48.425Z,99205.38
2022-12-09T08:46:16.343Z,99201.91
2022-12-09T08:48:44.177Z,99188.94
2022-12-09T08:51:12.343Z,99193.28
2022-12-09T08:53:40.684Z,99185.47
2022-12-09T08:56:10.266Z,99179.41
2022-12-09T08:58:38.102Z,99180.25
2022-12-09T09:01:06.440Z,99179.38
2022-12-09T09:03:34.290Z,99173.31
2022-12-09T09:06:09.184Z,99175.09
2022-12-09T09:08:39.118Z,99162.16
2022-12-09T09:11:12.410Z,99160.41
2022-12-09T09:13:41.529Z,99164.69
2022-12-09T09:16:12.287Z,99171.63
2022-12-09T09:18:40.980Z,99166.38
2022-12-09T09:21:11.047Z,99165.53
2022-12-09T09:23:38.781Z,99166.41
2022-12-09T09:26:11.001Z,99165.56
2022-12-09T09:28:39.206Z,99156.91
2022-12-09T09:31:08.666Z,99146.47
2022-12-09T09:33:37.238Z,99146.47
2022-12-09T09:36:10.449Z,99141.31
2022-12-09T09:38:39.424Z,99137.94
2022-12-09T09:41:28.631Z,99132.66
2022-12-09T09:43:56.689Z,99131.78
2022-12-09T09:46:36.058Z,99132.66
2022-12-09T09:49:06.755Z,99136.19
2022-12-09T09:51:35.765Z,99129.28
2022-12-09T09:54:08.434Z,99124.13
2022-12-09T09:57:03.652Z,99113.66
2022-12-09T09:59:34.189Z,99114.59
2022-12-09T10:02:07.960Z,99105.09
2022-12-09T10:04:44.361Z,99093.81
2022-12-09T10:07:37.807Z,99091.28
2022-12-09T10:10:32.397Z,99083.53
2022-12-09T10:13:43.124Z,99075.72
2022-12-09T10:16:21.050Z,99063.69
2022-12-09T10:19:02.495Z,99060.19
2022-12-09T10:21:34.780Z,99049.00
2022-12-09T10:24:38.768Z,99030.91
2022-12-09T10:27:29.843Z,99024.87
2022-12-09T10:30:13.010Z,99014.50
2022-12-09T10:32:41.343Z,99015.38
2022-12-09T10:35:21.185Z,99011.06
2022-12-09T10:37:52.603Z,98995.47
2022-12-09T10:40:35.543Z,98993.78
2022-12-09T10:43:44.229Z,98976.53
2022-12-09T10:46:24.306Z,98973.97
2022-12-09T10:48:56.130Z,98967.13
2022-12-09T10:51:29.945Z,98955.88
2022-12-09T10:54:00.021Z,98961.06
2022-12-09T10:56:35.053Z,98958.50
2022-12-09T10:59:29.973Z,98958.44
2022-12-09T11:02:02.848Z,98955.03
2022-12-09T11:04:33.972Z,98948.97
2022-12-09T11:07:05.233Z,98936.94
2022-12-09T11:09:43.851Z,98934.28
2022-12-09T11:12:38.489Z,98920.44
2022-12-09T11:15:11.739Z,98923.00
2022-12-09T11:17:42.485Z,98918.66
2022-12-09T11:20:17.569Z,98910.87
2022-12-09T11:22:45.992Z,98909.13
2022-12-09T11:25:27.328Z,98915.28
2022-12-09T11:28:18.178Z,98912.72
2022-12-09T11:31:27.011Z,98911.06
2022-12-09T11:33:49.177Z,98904.03
2022-12-09T11:36:23.024Z,98916.16
2022-12-09T11:38:52.466Z,98910.87
2022-12-09T11:41:45.095Z,98894.50
2022-12-09T11:44:25.533Z,98898.81
2022-12-09T11:47:07.958Z,98888.47
2022-12-09T11:49:43.800Z,98893.63
2022-12-09T11:52:17.282Z,98885.75
2022-12-09T11:54:50.138Z,98894.34
2022-12-09T11:57:34.549Z,98885.72
2022-12-09T12:00:15.367Z,98885.72
2022-12-09T12:02:47.607Z,98871.00
2022-12-09T12:05:25.743Z,98848.66
2022-12-09T12:08:18.021Z,98857.34
2022-12-09T12:11:11.853Z,98848.69
2022-12-09T12:13:47.887Z,98852.03
2022-12-09T12:16:49.540Z,98857.16
2022-12-09T12:19:38.939Z,98868.44
2022-12-09T12:22:24.925Z,98858.88
2022-12-09T12:24:55.386Z,98857.31
2022-12-09T12:27:47.062Z,98827.78
2022-12-09T12:30:18.965Z,98827.72
2022-12-09T12:36:04.279Z,98830.41
2022-12-09T12:38:54.875Z,98821.00
2022-12-09T12:41:40.303Z,98839.19
2022-12-09T12:44:44.611Z,98824.34
2022-12-09T12:47:20.569Z,98828.84
2022-12-09T12:50:17.244Z,98826.16
2022-12-09T12:52:57.192Z,98825.28
2022-12-09T12:55:41.699Z,98808.88
2022-12-09T12:58:28.055Z,98804.44
2022-12-09T13:01:22.396Z,98796.87
2022-12-09T13:04:25.321Z,98811.59
2022-12-09T13:07:17.140Z,98811.59
2022-12-09T13:10:03.640Z,98800.47
2022-12-09T13:12:56.971Z,98790.06
2022-12-09T13:15:32.391Z,98777.97
2022-12-09T13:18:07.247Z,98794.50
2022-12-09T13:20:46.211Z,98794.34
2022-12-09T13:23:32.280Z,98798.63
2022-12-09T13:26:13.646Z,98796.06
2022-12-09T13:28:43.962Z,98792.59
2022-12-09T13:31:11.600Z,98800.28
2022-12-09T13:33:53.839Z,98792.41
2022-12-09T13:36:39.674Z,98777.78
2022-12-09T13:39:11.078Z,98780.47
2022-12-09T13:42:02.023Z,98771.97
2022-12-09T13:44:34.939Z,98779.91
2022-12-09T13:47:28.452Z,98790.19
2022-12-09T13:49:58.983Z,98778.03
2022-12-09T13:52:48.103Z,98775.28
2022-12-09T13:55:40.222Z,98774.41
2022-12-09T13:58:19.416Z,98774.31
2022-12-09T14:01:04.448Z,98776.16
2022-12-09T14:03:36.620Z,98774.37
2022-12-09T14:06:38.482Z,98772.66
2022-12-09T14:09:43.816Z,98763.22
2022-12-09T14:12:13.866Z,98764.22
2022-12-09T14:14:44.429Z,98757.44
2022-12-09T14:17:40.649Z,98760.81
2022-12-09T14:20:27.851Z,98759.84
2022-12-09T14:23:24.610Z,98752.03
2022-12-09T14:26:00.046Z,98754.47
2022-12-09T14:28:36.578Z,98750.16
2022-12-09T14:31:08.645Z,98732.03
2022-12-09T14:33:39.342Z,98732.09
2022-12-09T14:36:13.059Z,98727.69
2022-12-09T14:39:15.635Z,98721.63
2022-12-09T14:41:46.295Z,98727.87
2022-12-09T14:44:47.440Z,98719.09
2022-12-09T14:47:22.134Z,98713.31
2022-12-09T14:49:50.755Z,98703.81
2022-12-09T14:52:30.958Z,98697.59
2022-12-09T14:55:01.274Z,98695.00
2022-12-09T14:57:33.102Z,98692.28
2022-12-09T15:00:00.403Z,98700.19
2022-12-09T15:02:30.455Z,98689.87
2022-12-09T15:05:00.605Z,98694.25
2022-12-09T15:07:33.072Z,98691.56
2022-12-09T15:10:07.947Z,98688.09
2022-12-09T15:12:36.651Z,98690.69
2022-12-09T15:15:10.935Z,98689.97
2022-12-09T15:17:44.958Z,98675.22
2022-12-09T15:20:48.907Z,98686.53
2022-12-09T15:23:20.648Z,98662.16
2022-12-09T15:25:56.667Z,98670.88
2022-12-09T15:28:27.234Z,98668.91
2022-12-09T15:30:57.058Z,98667.19
2022-12-09T15:33:24.863Z,98661.31
2022-12-09T15:36:02.481Z,98652.66
2022-12-09T15:38:40.494Z,98647.53
2022-12-09T15:41:27.590Z,98646.66
2022-12-09T15:43:59.444Z,98642.31
2022-12-09T15:46:27.906Z,98635.53
2022-12-09T15:48:57.495Z,98632.03
2022-12-09T15:51:26.385Z,98630.25
2022-12-09T15:54:06.170Z,98629.28
2022-12-09T15:56:44.407Z,98633.44
2022-12-09T15:59:24.813Z,98617.25
2022-12-09T16:01:54.092Z,98618.19
2022-12-09T16:04:35.955Z,98618.19
2022-12-09T16:07:12.931Z,98610.47
2022-12-09T16:09:40.828Z,98605.44
2022-12-09T16:12:27.735Z,98603.78
2022-12-09T16:14:55.703Z,98604.38
2022-12-09T16:17:26.999Z,98599.19
2022-12-09T16:19:54.682Z,98595.78
2022-12-09T16:22:26.410Z,98582.75
2022-12-09T16:25:24.539Z,98582.78
2022-12-09T16:28:03.604Z,98571.56
2022-12-09T16:30:32.991Z,98571.44
2022-12-09T16:33:02.158Z,98572.28
2022-12-09T16:35:42.766Z,98570.41
2022-12-09T16:38:10.315Z,98559.94
2022-12-09T16:40:43.656Z,98561.84
2022-12-09T16:43:17.357Z,98554.94
2022-12-09T16:46:02.035Z,98550.59
2022-12-09T16:48:30.306Z,98540.81
2022-12-09T16:51:10.568Z,98536.63
2022-12-09T16:53:43.185Z,98532.06
2022-12-09T16:56:20.636Z,98519.34
2022-12-09T16:58:48.427Z,98518.56
2022-12-09T17:01:17.801Z,98512.38
2022-12-09T17:03:58.884Z,98514.25
2022-12-09T17:06:26.623Z,98512.50
2022-12-09T17:08:53.937Z,98504.53
2022-12-09T17:11:21.787Z,98494.13
2022-12-09T17:13:50.111Z,98494.34
2022-12-09T17:16:17.580Z,98489.25
2022-12-09T17:18:45.120Z,98488.09
2022-12-09T17:21:15.882Z,98482.91
2022-12-09T17:23:44.042Z,98477.75
2022-12-09T17:26:13.991Z,98468.13
2022-12-09T17:28:42.426Z,98466.22
2022-12-09T17:31:15.635Z,98467.72
2022-12-09T17:33:45.940Z,98466.88
2022-12-09T17:36:14.383Z,98469.44
2022-12-09T17:38:42.168Z,98471.13
2022-12-09T17:41:13.233Z,98468.44
2022-12-09T17:43:40.763Z,98467.88
2022-12-09T17:46:09.828Z,98471.16
2022-12-09T17:48:39.851Z,98477.94
2022-12-09T17:51:09.836Z,98470.41
2022-12-09T17:53:38.817Z,98469.37
2022-12-09T17:56:18.106Z,98449.53
2022-12-09T17:58:46.495Z,98443.38
2022-12-09T18:01:19.653Z,98440.72
2022-12-09T18:03:56.040Z,98451.94
2022-12-09T18:06:27.775Z,98441.44
2022-12-09T18:08:55.438Z,98422.34
2022-12-09T18:11:23.500Z,98428.63
2022-12-09T18:13:51.260Z,98428.53
2022-12-09T18:16:19.752Z,98431.94
2022-12-09T18:18:47.503Z,98431.22
2022-12-09T18:21:16.274Z,98432.81
2022-12-09T18:23:44.380Z,98425.09
2022-12-09T18:26:14.415Z,98426.03
2022-12-09T18:28:41.806Z,98419.12
2022-12-09T18:31:12.699Z,98410.53
2022-12-09T18:33:40.862Z,98406.31
2022-12-09T18:36:08.866Z,98406.00
2022-12-09T18:38:37.285Z,98417.06
2022-12-09T18:41:04.833Z,98409.16
2022-12-09T18:43:38.039Z,98403.31
2022-12-09T18:46:08.778Z,98415.34
2022-12-09T18:48:36.882Z,98406.94
2022-12-09T18:51:04.544Z,98410.94
2022-12-09T18:53:32.154Z,98398.16
2022-12-09T18:55:59.513Z,98388.69
2022-12-09T18:58:49.602Z,98392.00
2022-12-09T19:01:14.931Z,98391.16
2022-12-09T19:03:42.320Z,98390.13
2022-12-09T19:06:22.050Z,98382.56
2022-12-09T19:08:54.358Z,98393.41
2022-12-09T19:11:22.859Z,98400.34
2022-12-09T19:13:50.536Z,98385.63
2022-12-09T19:16:17.961Z,98374.81
2022-12-09T19:18:45.806Z,98377.25
2022-12-09T19:21:16.146Z,98379.94
2022-12-09T19:23:45.119Z,98374.75
2022-12-09T19:26:20.270Z,98376.13
2022-12-09T19:29:07.455Z,98375.06
2022-12-09T19:31:38.065Z,98373.56
2022-12-09T19:34:30.828Z,98365.06
2022-12-09T19:36:59.063Z,98356.41
2022-12-09T19:39:30.024Z,98358.00
2022-12-09T19:41:58.447Z,98339.91
2022-12-09T19:44:52.624Z,98341.78
2022-12-09T19:47:14.172Z,98337.28
2022-12-09T19:49:43.342Z,98327.84
2022-12-09T19:52:11.961Z,98324.41
2022-12-09T19:54:39.696Z,98305.53
2022-12-09T19:57:07.063Z,98306.91
2022-12-09T19:59:35.559Z,98310.69
2022-12-09T20:02:03.402Z,98319.78
2022-12-09T20:07:19.424Z,98311.97
2022-12-09T20:09:47.439Z,98316.66
2022-12-09T20:12:14.764Z,98308.78
2022-12-09T20:14:43.151Z,98313.09
2022-12-09T20:17:11.011Z,98323.25
2022-12-09T20:19:38.356Z,98315.31
2022-12-09T20:22:05.654Z,98321.28
2022-12-09T20:24:33.365Z,98307.69
2022-12-09T20:27:00.768Z,98294.66
2022-12-09T20:29:32.451Z,98274.00
2022-12-09T20:32:03.343Z,98269.69
2022-12-09T20:34:30.719Z,98264.47
2022-12-09T20:36:58.162Z,98260.91
2022-12-09T20:39:25.731Z,98265.28
2022-12-09T20:41:53.092Z,98255.66
2022-12-09T20:44:20.594Z,98252.00
2022-12-09T20:46:50.412Z,98263.97
2022-12-09T20:49:21.503Z,98252.31
2022-12-09T20:51:49.322Z,98256.28
2022-12-09T20:54:16.736Z,98258.16
2022-12-09T20:56:44.157Z,98268.25
2022-12-09T20:59:13.525Z,98257.91
2022-12-09T21:01:41.389Z,98276.75
2022-12-09T21:04:09.048Z,98283.81
2022-12-09T21:06:38.375Z,98275.03
2022-12-09T21:09:09.103Z,98272.47
2022-12-09T21:11:37.376Z,98273.31
2022-12-09T21:14:06.789Z,98265.28
2022-12-09T21:16:37.685Z,98266.22
2022-12-09T21:19:07.260Z,98270.75
2022-12-09T21:21:37.867Z,98270.84
2022-12-09T21:24:06.005Z,98259.59
2022-12-09T21:26:33.385Z,98258.72
2022-12-09T21:29:01.491Z,98263.84
2022-12-09T21:31:32.474Z,98274.62
2022-12-09T21:34:02.964Z,98286.87
2022-12-09T21:36:32.564Z,98279.34
2022-12-09T21:39:00.107Z,98270.94
2022-12-09T21:41:29.915Z,98266.31
2022-12-09T21:43:57.976Z,98268.41
2022-12-09T21:46:30.468Z,98271.53
2022-12-09T21:49:03.607Z,98265.84
2022-12-09T21:51:32.794Z,98264.00
2022-12-09T21:54:00.936Z,98269.22
2022-12-09T21:56:32.647Z,98264.78
2022-12-09T21:59:00.773Z,98266.44
2022-12-09T22:01:30.951Z,98269.88
2022-12-09T22:04:00.081Z,98267.91
2022-12-09T22:06:28.339Z,98268.75
2022-12-09T22:08:55.914Z,98263.56
2022-12-09T22:11:25.540Z,98266.62
2022-12-09T22:13:53.484Z,98265.84
2022-12-09T22:16:26.417Z,98265.53
2022-12-09T22:18:56.056Z,98266.34
2022-12-09T22:21:26.377Z,98262.69
2022-12-09T22:24:04.105Z,98266.62
2022-12-09T22:26:31.868Z,98257.81
2022-12-09T22:29:01.075Z,98263.97
2022-12-09T22:31:31.331Z,98267.22
2022-12-09T22:34:01.335Z,98262.06
2022-12-09T22:36:28.716Z,98259.59
2022-12-09T22:38:56.059Z,98265.69
2022-12-09T22:41:27.712Z,98260.41
2022-12-09T22:43:55.992Z,98255.53
2022-12-09T22:46:27.211Z,98268.47
2022-12-09T22:48:55.625Z,98261.44
2022-12-09T22:51:25.963Z,98258.94
2022-12-09T22:53:55.055Z,98261.53
2022-12-09T22:56:23.188Z,98256.88
2022-12-09T22:58:51.048Z,98260.19
2022-12-09T23:01:21.414Z,98263.53
2022-12-09T23:03:48.756Z,98265.59
2022-12-09T23:06:16.370Z,98270.00
2022-12-09T23:08:44.869Z,98271.19
2022-12-09T23:11:14.623Z,98275.16
2022-12-09T23:13:42.530Z,98279.44
2022-12-09T23:16:13.138Z,98276.16
2022-12-09T23:18:41.412Z,98269.84
2022-12-09T23:21:18.077Z,98264.94
2022-12-09T23:23:46.150Z,98257.72
2022-12-09T23:26:16.554Z,98261.25
2022-12-09T23:28:46.752Z,98260.34
2022-12-09T23:31:17.312Z,98256.63
2022-12-09T23:33:46.923Z,98262.44
2022-12-09T23:36:23.720Z,98269.47
2022-12-09T23:38:51.775Z,98264.44
2022-12-09T23:41:20.595Z,98269.63
2022-12-09T23:43:49.173Z,98262.13
2022-12-09T23:46:18.630Z,98268.06
2022-12-09T23:48:47.954Z,98270.44
2022-12-09T23:51:29.813Z,98262.28
2022-12-09T23:54:00.264Z,98268.03
2022-12-09T23:56:30.563Z,98270.84
2022-12-09T23:59:00.462Z,98275.00
